3R7

Jennings Airport

Jennings, Louisiana, USA
METAR K3R7 191235Z AUTO 21003KT 2 1/2SM BR CLR 25/25 A2997 RMK AO2 T02540250
Observed Flight Rules
Sep-19 @ 12:35 UTC (27 minutes ago) Instrument Flight Rules
Wind Visibility Clouds Conditions
210° at 3 knots 2 1/2 miles
  • Clear skies
  • Mist
Temperatures Readings
Current 25°C / 77°F
Dewpoint 25°C / 77°F
Humidity 100%
Altimeter 29.97" Hg
Pressure 1015 hPa
Elevation 7
METAR K3R7 191235Z AUTO 21003KT 2 1/2SM BR CLR 25/25 A2997 RMK AO2 T02540250
Observed Flight Rules
Sep-19 @ 12:35 UTC
(27 minutes ago)
IFR
Wind Visibility
210° at 3 knots 2 1/2 miles
Clouds
  • Clear skies
Conditions
  • Mist
Temperature Dewpoint
25°C / 77°F 25°C / 77°F
Humidity Altimeter Pressure
100% 29.97" Hg 1015 hPa